METAR AND TAF INFORMATION
METAR FOR LIBD
ADDS - METARS form results

(2356 UTC 18 September 2020)
Data provider http://aviationweather.gov/metar/data/
 
METAR text: LIBD 182350Z 27009KT CAVOK 22/18 Q1017
Conditions at: LIBD (BARI/PALESE MACC, IT) observed 2350 UTC 18 September 2020
Temperature: 22.0°C (72°F)
Dewpoint: 18.0°C (64°F) [RH = 78%]
Pressure (altimeter): 30.03 inches Hg (1017.0 mb)
Winds: from the W (270 degrees) at 10 MPH (9 knots; 4.6 m/s)
Visibility: 6 or more miles (10+ km)
Ceiling: ceiling and visibility are OK
Clouds: unknown
Weather: no significant weather observed at this time

METAR text: LIBD 182320Z 27009KT CAVOK 22/17 Q1017
Conditions at: LIBD (BARI/PALESE MACC, IT) observed 2320 UTC 18 September 2020
Temperature: 22.0°C (72°F)
Dewpoint: 17.0°C (63°F) [RH = 73%]
Pressure (altimeter): 30.03 inches Hg (1017.0 mb)
Winds: from the W (270 degrees) at 10 MPH (9 knots; 4.6 m/s)
Visibility: 6 or more miles (10+ km)
Ceiling: ceiling and visibility are OK
Clouds: unknown
Weather: no significant weather observed at this time

Forecast for: LIBD (BARI/PALESE MACC, IT)
Text: TAF LIBD 182300Z 1900/1924 34010KT 9999 SCT030
Forecast period: 0000 UTC 19 September 2020 to 0000 UTC 20 September 2020
Forecast type: FROM: standard forecast or significant change
Winds: from the NNW (340 degrees) at 12 MPH (10 knots; 5.1 m/s)
Visibility: 6 or more miles (10+ km)
Ceiling: at least 12,000 feet AGL
Clouds: scattered clouds at 3000 feet AGL
Weather: no significant weather forecast for this period

 AIRPORT MAP

 RUNWAY INFORMATION
Runway 07 Runway length 8005 ft Runway width 148 ft
Runway elevation 177 ft Runway displaced threshold 0 ft Runway heading 69
Runway 25 Runway length 8005 ft Runway width 148 ft
Runway elevation 108 ft Runway displaced threshold 0 ft Runway heading 249
Runway 12 Runway length 5512 ft Runway width 164 ft
Runway elevation 108 ft Runway displaced threshold 0 ft Runway heading 123
Runway 30 Runway length 5512 ft Runway width 164 ft
Runway elevation 108 ft Runway displaced threshold 0 ft Runway heading 303

 AIRPORT FREQUENCIES
Type APP Name APP Frequency 119.5 MHZ
Type TWR Name TWR Frequency 118.3 MHZ

 AIRPORT NEAR NAVIGATION AIDS
Type VOR-DME Name Bari Frequency 116400 KHZ



Powered by Virtual Airlines Manager [v2.6.2]

DutchAir is a free to use virtual airline